Time;durP1;ratioP1;P1;durP2;ratioP2;P2;SDS_P1;SDS_P2;PMS_P1;PMS_P2;Temp;Humidity;BMP_temperature;BMP_pressure;BME280_temperature;BME280_humidity;BME280_pressure;Samples;Min_cycle;Max_cycle;Signal;HPM_P1;HPM_P2
2021/05/28 00:00:47;;;;;;;22.90;20.43;;;8.20;99.90;;;;;;5000291;28;20464;-73
2021/05/28 00:03:13;;;;;;;23.03;20.50;;;8.20;99.90;;;;;;5001629;28;20471;-73
2021/05/28 00:05:40;;;;;;;22.27;20.27;;;8.10;99.90;;;;;;4999489;28;20580;-73
2021/05/28 00:08:07;;;;;;;22.40;20.10;;;8.00;99.90;;;;;;4999804;28;20861;-71
2021/05/28 00:10:33;;;;;;;21.83;19.60;;;8.00;99.90;;;;;;4997231;28;20471;-72
2021/05/28 00:12:59;;;;;;;24.20;21.60;;;7.90;99.90;;;;;;4992121;28;20470;-72
2021/05/28 00:15:25;;;;;;;21.93;19.80;;;7.90;99.90;;;;;;5003250;28;20483;-72
2021/05/28 00:17:52;;;;;;;25.20;20.00;;;7.90;99.90;;;;;;4997886;28;20851;-73
2021/05/28 00:20:18;;;;;;;23.80;21.37;;;7.90;99.90;;;;;;5004447;28;21034;-72
2021/05/28 00:22:45;;;;;;;22.80;20.80;;;7.80;99.90;;;;;;4998997;28;20465;-72
2021/05/28 00:25:13;;;;;;;23.67;21.37;;;7.70;99.90;;;;;;5005848;28;20489;-72
2021/05/28 00:27:39;;;;;;;22.23;20.30;;;7.80;99.90;;;;;;5002666;28;20480;-72
2021/05/28 00:30:07;;;;;;;23.97;21.00;;;7.80;99.90;;;;;;5002953;28;20496;-73
2021/05/28 00:32:34;;;;;;;22.63;20.43;;;7.90;99.90;;;;;;4999991;28;20853;-73
2021/05/28 00:35:00;;;;;;;22.43;20.70;;;7.90;99.90;;;;;;4997268;28;20455;-72
2021/05/28 00:37:26;;;;;;;22.77;20.47;;;7.80;99.90;;;;;;5005256;28;20474;-73
2021/05/28 00:39:54;;;;;;;22.57;20.23;;;7.70;99.90;;;;;;4998486;28;20868;-73
2021/05/28 00:42:20;;;;;;;23.50;21.20;;;7.50;99.90;;;;;;5001263;28;20969;-73
2021/05/28 00:44:46;;;;;;;23.13;21.23;;;7.40;99.90;;;;;;5000009;28;20540;-73
2021/05/28 00:47:13;;;;;;;22.53;20.43;;;7.30;99.90;;;;;;5003617;28;20459;-73
2021/05/28 00:49:39;;;;;;;21.93;20.10;;;7.30;99.90;;;;;;5004540;28;20822;-72
2021/05/28 00:52:05;;;;;;;33.17;20.73;;;7.30;99.90;;;;;;5004966;28;20905;-73
2021/05/28 00:54:32;;;;;;;22.87;20.90;;;7.30;99.90;;;;;;5003141;28;20932;-72
2021/05/28 00:56:59;;;;;;;22.33;20.50;;;7.30;99.90;;;;;;4998089;28;20461;-72
2021/05/28 00:59:26;;;;;;;21.77;19.90;;;7.20;99.90;;;;;;5003185;28;20457;-72
2021/05/28 01:01:54;;;;;;;22.80;20.57;;;7.20;99.90;;;;;;5002607;28;20544;-73
2021/05/28 01:04:21;;;;;;;23.10;21.07;;;7.10;99.90;;;;;;5003071;28;20990;-71
2021/05/28 01:06:47;;;;;;;22.53;20.83;;;7.10;99.90;;;;;;5003630;28;20477;-73
2021/05/28 01:09:13;;;;;;;23.73;21.30;;;7.10;99.90;;;;;;5006966;28;20465;-72
2021/05/28 01:11:40;;;;;;;25.53;23.43;;;7.00;99.90;;;;;;4999835;28;20496;-72
2021/05/28 01:14:08;;;;;;;23.67;21.30;;;7.00;99.90;;;;;;4996494;28;20743;-73
2021/05/28 01:16:34;;;;;;;24.90;22.63;;;6.90;99.90;;;;;;5005314;28;20462;-72
2021/05/28 01:19:00;;;;;;;25.10;22.30;;;6.90;99.90;;;;;;5004924;28;20557;-72
2021/05/28 01:21:27;;;;;;;23.13;21.23;;;6.90;99.90;;;;;;5001620;28;20470;-72
2021/05/28 01:23:55;;;;;;;22.80;20.90;;;6.90;99.90;;;;;;4999460;28;20469;-73
2021/05/28 01:26:21;;;;;;;22.87;21.07;;;6.90;99.90;;;;;;5001311;28;20470;-74
2021/05/28 01:28:48;;;;;;;23.47;21.60;;;6.80;99.90;;;;;;5002147;28;21023;-74
2021/05/28 01:31:15;;;;;;;22.80;20.90;;;6.70;99.90;;;;;;5004891;28;20453;-72
2021/05/28 01:33:42;;;;;;;24.40;21.93;;;6.70;99.90;;;;;;5004610;28;20512;-74
2021/05/28 01:36:09;;;;;;;25.40;22.47;;;6.70;99.90;;;;;;4995431;28;20531;-74
2021/05/28 01:38:36;;;;;;;22.63;21.03;;;6.60;99.90;;;;;;4992296;28;20477;-72
2021/05/28 01:41:04;;;;;;;26.83;24.03;;;6.50;99.90;;;;;;5002078;28;20474;-74
2021/05/28 01:43:30;;;;;;;24.67;22.50;;;6.40;99.90;;;;;;5001847;28;20467;-73
2021/05/28 01:45:57;;;;;;;27.60;24.70;;;6.30;99.90;;;;;;5003289;28;20505;-74
2021/05/28 01:48:24;;;;;;;26.80;24.70;;;6.30;99.90;;;;;;4997484;28;20454;-73
2021/05/28 01:50:52;;;;;;;27.83;25.30;;;6.30;99.90;;;;;;4997034;28;20485;-75
2021/05/28 01:53:20;;;;;;;26.70;23.97;;;6.30;99.90;;;;;;4994376;28;20466;-75
2021/05/28 01:55:49;;;;;;;26.30;24.00;;;6.30;99.90;;;;;;5000313;28;20554;-75
2021/05/28 01:58:19;;;;;;;24.43;22.47;;;6.20;99.90;;;;;;5002333;28;20998;-74
2021/05/28 02:00:47;;;;;;;24.60;22.80;;;6.20;99.90;;;;;;5005654;28;20683;-76
2021/05/28 02:03:13;;;;;;;27.57;24.27;;;6.20;99.90;;;;;;5000887;28;20493;-73
2021/05/28 02:05:40;;;;;;;25.47;22.57;;;6.10;99.90;;;;;;4997870;28;20491;-73
2021/05/28 02:08:07;;;;;;;26.03;23.57;;;6.00;99.90;;;;;;5001902;28;20465;-75
2021/05/28 02:10:34;;;;;;;26.33;24.10;;;5.90;99.90;;;;;;4997785;28;20499;-75
2021/05/28 02:13:01;;;;;;;24.80;22.70;;;5.90;99.90;;;;;;5002592;28;20465;-72
2021/05/28 02:15:28;;;;;;;26.43;23.53;;;5.90;99.90;;;;;;5000062;28;20461;-72
2021/05/28 02:17:55;;;;;;;25.07;22.97;;;5.80;99.90;;;;;;4998576;28;20489;-72
2021/05/28 02:20:22;;;;;;;25.50;23.37;;;5.80;99.90;;;;;;5002469;28;20808;-72
2021/05/28 02:22:49;;;;;;;24.70;22.80;;;5.80;99.90;;;;;;4996836;28;20459;-75
2021/05/28 02:25:15;;;;;;;24.37;22.57;;;5.70;99.90;;;;;;5003355;28;20506;-74
2021/05/28 02:27:43;;;;;;;24.70;22.27;;;5.60;99.90;;;;;;5001496;28;20894;-73
2021/05/28 02:30:10;;;;;;;24.40;22.40;;;5.60;99.90;;;;;;4996706;28;20493;-72
2021/05/28 02:32:38;;;;;;;27.70;22.80;;;5.60;99.90;;;;;;5001002;28;20545;-73
2021/05/28 02:35:09;;;;;;;32.30;23.37;;;5.50;99.90;;;;;;5002917;28;20461;-72
2021/05/28 02:37:35;;;;;;;26.93;24.13;;;5.50;99.90;;;;;;5003787;28;20466;-72
2021/05/28 02:40:02;;;;;;;24.83;22.90;;;5.50;99.90;;;;;;4992636;28;20746;-72
2021/05/28 02:42:28;;;;;;;23.67;22.10;;;5.40;99.90;;;;;;4998232;28;20465;-72
2021/05/28 02:44:54;;;;;;;23.00;21.20;;;5.30;99.90;;;;;;4999701;28;20511;-73
2021/05/28 02:47:20;;;;;;;23.50;21.70;;;5.20;99.90;;;;;;5002650;28;20491;-74
2021/05/28 02:49:48;;;;;;;26.60;23.93;;;5.20;99.90;;;;;;5013376;28;20484;-73
2021/05/28 02:52:15;;;;;;;23.93;21.93;;;5.20;99.90;;;;;;4995633;28;20462;-72
2021/05/28 02:54:41;;;;;;;24.03;22.13;;;5.30;99.90;;;;;;5001259;28;20785;-72
2021/05/28 02:57:08;;;;;;;25.07;23.07;;;5.20;99.90;;;;;;4992592;28;20470;-72
2021/05/28 02:59:34;;;;;;;25.13;23.03;;;5.10;99.90;;;;;;5002545;28;20497;-71
2021/05/28 03:02:01;;;;;;;26.20;24.13;;;5.10;99.90;;;;;;5003416;28;20538;-75
2021/05/28 03:04:27;;;;;;;24.90;22.67;;;5.10;99.90;;;;;;4999389;28;20777;-74
2021/05/28 03:06:54;;;;;;;27.07;24.67;;;5.20;99.90;;;;;;4998242;28;21008;-73
2021/05/28 03:09:21;;;;;;;28.27;25.37;;;5.20;99.90;;;;;;4999574;28;20472;-72
2021/05/28 03:11:47;;;;;;;27.33;24.80;;;5.30;99.90;;;;;;5001479;28;20528;-75
2021/05/28 03:14:13;;;;;;;25.00;23.10;;;5.20;99.90;;;;;;5003241;28;20465;-75
2021/05/28 03:16:40;;;;;;;27.20;24.73;;;5.10;99.90;;;;;;4996544;28;20463;-73
2021/05/28 03:19:14;;;;;;;27.07;24.67;;;5.00;99.90;;;;;;4999310;28;20585;-75
2021/05/28 03:22:30;;;;;;;28.07;25.10;;;5.00;99.90;;;;;;4995234;28;20482;-74
2021/05/28 03:24:27;;;;;;;34.83;25.80;;;5.00;99.90;;;;;;4990726;28;20480;-76
2021/05/28 03:26:54;;;;;;;27.97;25.37;;;5.10;99.90;;;;;;4997514;28;20650;-72
2021/05/28 03:29:20;;;;;;;26.07;24.07;;;5.00;99.90;;;;;;5001589;28;20737;-76
2021/05/28 03:31:46;;;;;;;25.60;23.50;;;4.90;99.90;;;;;;4997870;28;21219;-76
2021/05/28 03:34:13;;;;;;;25.90;23.60;;;4.80;99.90;;;;;;4992853;28;21376;-73
2021/05/28 03:36:40;;;;;;;25.30;23.40;;;4.80;99.90;;;;;;4996322;28;20462;-73
2021/05/28 03:39:07;;;;;;;27.37;24.83;;;4.70;99.90;;;;;;5002514;28;20850;-76
2021/05/28 03:41:34;;;;;;;27.03;24.83;;;4.70;99.90;;;;;;5001709;28;20516;-73
2021/05/28 03:44:00;;;;;;;26.33;23.53;;;4.90;99.90;;;;;;4997355;28;21003;-74
2021/05/28 03:46:27;;;;;;;26.10;23.77;;;4.90;99.90;;;;;;4997051;28;20473;-74
2021/05/28 03:48:53;;;;;;;25.80;23.60;;;4.80;99.90;;;;;;5001235;28;20524;-74
2021/05/28 03:51:20;;;;;;;24.70;22.70;;;4.80;99.90;;;;;;5005790;28;20462;-73
2021/05/28 03:53:48;;;;;;;24.17;22.57;;;4.70;99.90;;;;;;5003266;28;20512;-75
2021/05/28 03:56:14;;;;;;;25.20;23.27;;;4.60;99.90;;;;;;5005638;28;20468;-72
2021/05/28 03:58:41;;;;;;;25.03;22.80;;;4.60;99.90;;;;;;5000632;28;20859;-73
2021/05/28 04:01:08;;;;;;;24.97;22.87;;;4.60;99.90;;;;;;5002930;28;20477;-74
2021/05/28 04:03:34;;;;;;;28.17;25.07;;;4.70;99.90;;;;;;5005458;28;20466;-75
2021/05/28 04:06:00;;;;;;;26.10;24.10;;;4.80;99.90;;;;;;4998251;28;20487;-75
2021/05/28 04:08:27;;;;;;;34.07;25.63;;;4.80;99.90;;;;;;5007057;28;20885;-73
2021/05/28 04:10:53;;;;;;;27.80;24.63;;;4.90;99.90;;;;;;5005647;28;20458;-76
2021/05/28 04:13:19;;;;;;;26.63;24.37;;;4.90;99.90;;;;;;5004367;28;20829;-73
2021/05/28 04:15:46;;;;;;;28.03;25.07;;;5.00;99.90;;;;;;5005609;28;20713;-74
2021/05/28 04:18:13;;;;;;;28.97;25.87;;;5.10;99.90;;;;;;5005697;28;20472;-75
2021/05/28 04:20:43;;;;;;;203.33;28.67;;;5.20;99.90;;;;;;5006513;28;20458;-72
2021/05/28 04:23:09;;;;;;;109.47;24.80;;;5.20;99.90;;;;;;5008185;28;20457;-72
2021/05/28 04:25:36;;;;;;;112.17;27.40;;;5.30;99.90;;;;;;5002250;28;20490;-75
2021/05/28 04:28:02;;;;;;;102.00;25.53;;;5.40;99.90;;;;;;5004536;28;20527;-73
2021/05/28 04:30:29;;;;;;;26.30;24.20;;;5.50;99.90;;;;;;5008865;28;20496;-76
2021/05/28 04:32:56;;;;;;;25.83;23.93;;;5.50;99.90;;;;;;5009169;28;20773;-72
2021/05/28 04:35:22;;;;;;;53.13;24.03;;;5.50;99.90;;;;;;5008914;28;20457;-74
2021/05/28 04:37:49;;;;;;;60.83;24.97;;;5.50;99.90;;;;;;5006508;28;20458;-72
2021/05/28 04:40:16;;;;;;;73.43;23.90;;;5.60;99.90;;;;;;5004910;28;20500;-73
2021/05/28 04:42:42;;;;;;;45.77;24.20;;;5.60;99.90;;;;;;5005966;28;20531;-72
2021/05/28 04:45:10;;;;;;;27.57;24.60;;;5.70;99.90;;;;;;5005886;28;20524;-74
2021/05/28 04:47:36;;;;;;;26.60;24.50;;;5.80;99.90;;;;;;5004924;28;20466;-72
2021/05/28 04:50:04;;;;;;;24.60;22.70;;;5.90;99.90;;;;;;5007835;28;20812;-72
2021/05/28 04:52:31;;;;;;;29.80;24.27;;;5.90;99.90;;;;;;5006638;28;20536;-72
2021/05/28 04:54:58;;;;;;;27.77;25.57;;;6.00;99.90;;;;;;5004453;28;20485;-73
2021/05/28 04:57:24;;;;;;;28.50;26.13;;;6.10;99.90;;;;;;5005610;28;21056;-73
2021/05/28 04:59:51;;;;;;;29.47;26.97;;;6.30;99.90;;;;;;5001556;28;20972;-72
2021/05/28 05:02:17;;;;;;;28.97;26.27;;;6.40;99.90;;;;;;5005869;28;20604;-73
2021/05/28 05:04:43;;;;;;;29.87;26.67;;;6.50;99.90;;;;;;5006233;28;20481;-73
2021/05/28 05:07:11;;;;;;;28.90;26.43;;;6.60;99.90;;;;;;5002415;28;20461;-75
2021/05/28 05:09:38;;;;;;;29.10;26.60;;;6.70;99.90;;;;;;5003622;28;20835;-72
2021/05/28 05:12:05;;;;;;;30.33;27.73;;;6.80;99.90;;;;;;5002612;28;21030;-73
2021/05/28 05:14:32;;;;;;;31.77;28.50;;;6.90;99.90;;;;;;5003936;28;20474;-73
2021/05/28 05:16:58;;;;;;;32.20;29.20;;;6.90;99.90;;;;;;5003794;28;20473;-73
2021/05/28 05:19:24;;;;;;;29.80;27.20;;;7.10;99.90;;;;;;5004845;28;20461;-73
2021/05/28 05:21:52;;;;;;;29.87;27.23;;;7.10;99.90;;;;;;5003649;28;20462;-73
2021/05/28 05:24:20;;;;;;;30.97;27.90;;;7.20;99.90;;;;;;5003218;28;20465;-73
2021/05/28 05:26:46;;;;;;;31.33;28.43;;;7.30;99.90;;;;;;5005137;28;20470;-73
2021/05/28 05:29:12;;;;;;;30.00;27.30;;;7.40;99.90;;;;;;5006665;28;20501;-73
2021/05/28 05:31:40;;;;;;;31.87;28.50;;;7.50;99.90;;;;;;5006271;28;20466;-73
2021/05/28 05:34:06;;;;;;;31.30;28.40;;;7.70;99.90;;;;;;5004105;28;20484;-74
2021/05/28 05:36:35;;;;;;;31.17;28.30;;;7.80;99.90;;;;;;5001004;28;20549;-72
2021/05/28 05:39:01;;;;;;;30.80;28.27;;;8.00;99.90;;;;;;4993504;28;20469;-74
2021/05/28 05:41:29;;;;;;;35.60;32.00;;;8.10;99.90;;;;;;4996891;28;20500;-73
2021/05/28 05:43:55;;;;;;;38.03;32.80;;;8.20;99.90;;;;;;5003572;28;20464;-72
2021/05/28 05:46:22;;;;;;;37.40;32.97;;;8.40;99.90;;;;;;4999559;28;20536;-73
2021/05/28 05:48:48;;;;;;;35.17;31.10;;;8.60;99.90;;;;;;4998710;28;20929;-73
2021/05/28 05:51:15;;;;;;;38.57;30.73;;;8.80;99.90;;;;;;4994798;28;20465;-73
2021/05/28 05:53:41;;;;;;;35.87;31.90;;;9.00;99.90;;;;;;4993213;28;20488;-74
2021/05/28 05:56:07;;;;;;;42.90;32.97;;;9.10;99.90;;;;;;4997945;28;21000;-73
2021/05/28 05:58:35;;;;;;;35.90;31.23;;;9.30;99.90;;;;;;4998761;28;20463;-73
2021/05/28 06:01:01;;;;;;;35.97;31.63;;;9.40;99.90;;;;;;4989709;28;20526;-73
2021/05/28 06:03:27;;;;;;;48.57;33.30;;;9.50;99.90;;;;;;5001874;28;20468;-77
2021/05/28 06:05:54;;;;;;;41.33;33.60;;;9.60;99.90;;;;;;4997227;28;20501;-73
2021/05/28 06:08:21;;;;;;;41.33;32.90;;;9.70;99.90;;;;;;4996914;28;20514;-75
2021/05/28 06:10:47;;;;;;;37.07;32.27;;;9.90;99.90;;;;;;5004865;28;20496;-73
2021/05/28 06:13:14;;;;;;;37.37;31.63;;;10.00;99.90;;;;;;5002882;28;20476;-73
2021/05/28 06:15:41;;;;;;;37.43;33.47;;;10.20;99.90;;;;;;4998977;28;20484;-73
2021/05/28 06:18:09;;;;;;;36.03;32.13;;;10.30;99.90;;;;;;4994033;28;20491;-73
2021/05/28 06:20:35;;;;;;;35.10;31.50;;;10.40;99.90;;;;;;4997180;28;20492;-74
2021/05/28 06:23:02;;;;;;;31.40;28.10;;;10.50;99.90;;;;;;4999933;28;20471;-74
2021/05/28 06:25:29;;;;;;;39.17;32.50;;;10.50;99.90;;;;;;4997103;28;20489;-73
2021/05/28 06:27:55;;;;;;;39.20;33.10;;;10.40;99.90;;;;;;4996122;28;20469;-75
2021/05/28 06:30:21;;;;;;;36.17;32.40;;;10.40;99.90;;;;;;4997085;28;20492;-75
2021/05/28 06:32:49;;;;;;;43.60;35.00;;;10.50;99.90;;;;;;4995523;28;20467;-74
2021/05/28 06:35:15;;;;;;;36.40;32.40;;;10.70;99.90;;;;;;4995547;28;20473;-76
2021/05/28 06:37:41;;;;;;;35.60;32.30;;;10.90;99.90;;;;;;4996113;28;20550;-73
2021/05/28 06:40:11;;;;;;;40.13;35.00;;;11.10;99.90;;;;;;4998400;28;21615;-74
2021/05/28 06:42:37;;;;;;;39.53;35.43;;;11.20;99.90;;;;;;4998718;28;20478;-74
2021/05/28 06:45:04;;;;;;;50.23;40.33;;;11.40;99.90;;;;;;4997572;28;20501;-75
2021/05/28 06:47:31;;;;;;;56.13;44.30;;;11.70;99.90;;;;;;4992894;28;20469;-75
2021/05/28 06:49:58;;;;;;;55.47;42.00;;;12.00;99.90;;;;;;4993381;28;21192;-74
2021/05/28 06:52:24;;;;;;;54.27;43.90;;;12.40;99.90;;;;;;4995602;28;20466;-73
2021/05/28 06:54:51;;;;;;;57.30;44.90;;;12.50;99.90;;;;;;4990205;28;20492;-73
2021/05/28 06:57:17;;;;;;;66.67;48.60;;;12.60;99.90;;;;;;4997705;28;20454;-73
2021/05/28 06:59:43;;;;;;;56.17;47.37;;;12.80;99.90;;;;;;4994652;28;20477;-76
2021/05/28 07:02:10;;;;;;;60.17;47.27;;;13.00;99.90;;;;;;4995768;28;20980;-76
2021/05/28 07:04:36;;;;;;;67.80;47.50;;;13.20;99.90;;;;;;4994355;28;20462;-73
2021/05/28 07:07:04;;;;;;;67.80;48.60;;;13.10;99.90;;;;;;4999770;28;20462;-76
2021/05/28 07:09:31;;;;;;;71.23;47.93;;;13.10;99.90;;;;;;4994931;28;20520;-74
2021/05/28 07:11:57;;;;;;;65.47;50.67;;;13.00;99.90;;;;;;4996706;28;21142;-76
2021/05/28 07:14:24;;;;;;;59.90;46.20;;;13.10;99.90;;;;;;4992715;28;20473;-72
2021/05/28 07:16:50;;;;;;;63.73;47.97;;;13.10;99.90;;;;;;4992978;28;20465;-74
2021/05/28 07:19:17;;;;;;;65.20;48.83;;;13.70;99.90;;;;;;4992900;28;21006;-73
2021/05/28 07:21:43;;;;;;;61.13;48.47;;;14.00;99.90;;;;;;5000749;28;20454;-75
2021/05/28 07:24:11;;;;;;;62.07;45.93;;;13.70;99.90;;;;;;4991362;28;20465;-74
2021/05/28 07:26:37;;;;;;;65.10;48.23;;;14.10;99.90;;;;;;4997229;28;20501;-74
2021/05/28 07:29:04;;;;;;;61.67;44.20;;;14.50;99.90;;;;;;4997358;28;20495;-75
2021/05/28 07:31:31;;;;;;;59.97;44.00;;;14.90;99.90;;;;;;4996892;28;20481;-75
2021/05/28 07:33:57;;;;;;;66.93;44.57;;;14.60;99.90;;;;;;4994260;28;20476;-74
2021/05/28 07:36:23;;;;;;;53.63;42.83;;;14.50;99.90;;;;;;4998392;28;20493;-73
2021/05/28 07:38:50;;;;;;;50.97;42.23;;;14.40;99.90;;;;;;4996364;28;20465;-74
2021/05/28 07:41:17;;;;;;;60.83;43.80;;;14.70;99.90;;;;;;4997584;28;20511;-73
2021/05/28 07:43:44;;;;;;;61.07;41.83;;;14.70;99.90;;;;;;4990576;28;20497;-72
2021/05/28 07:46:10;;;;;;;55.03;40.13;;;15.20;99.90;;;;;;4997459;28;20486;-72
2021/05/28 07:48:37;;;;;;;48.50;40.70;;;15.40;99.90;;;;;;5000356;28;20479;-73
2021/05/28 07:51:03;;;;;;;45.00;36.73;;;15.60;99.90;;;;;;5000573;28;20466;-74
2021/05/28 07:53:30;;;;;;;46.20;37.57;;;16.30;99.90;;;;;;4996730;28;20481;-72
2021/05/28 07:55:59;;;;;;;47.50;37.83;;;16.00;99.90;;;;;;4993748;28;20466;-74
2021/05/28 07:58:29;;;;;;;59.10;40.93;;;15.60;99.90;;;;;;4996553;28;20473;-75
2021/05/28 08:00:55;;;;;;;46.80;38.00;;;15.90;99.90;;;;;;4995396;28;20470;-73
2021/05/28 08:03:21;;;;;;;48.47;39.13;;;15.80;99.90;;;;;;5000193;28;20458;-74
2021/05/28 08:05:50;;;;;;;50.17;40.20;;;15.60;99.90;;;;;;4996179;28;20515;-72
2021/05/28 08:08:17;;;;;;;43.67;38.87;;;16.00;99.90;;;;;;4991152;28;20466;-72
2021/05/28 08:10:43;;;;;;;49.87;39.17;;;16.20;99.90;;;;;;4994094;28;20558;-75
2021/05/28 08:13:10;;;;;;;45.47;39.30;;;16.50;99.90;;;;;;4997877;28;21032;-73
2021/05/28 08:15:37;;;;;;;42.80;36.77;;;16.60;99.90;;;;;;5002021;28;20472;-73
2021/05/28 08:18:04;;;;;;;38.50;34.40;;;17.20;99.90;;;;;;4997904;28;20461;-75
2021/05/28 08:20:32;;;;;;;37.73;33.47;;;17.80;99.90;;;;;;4997599;28;20465;-74
2021/05/28 08:22:59;;;;;;;48.27;34.40;;;18.00;99.90;;;;;;4999258;28;21087;-73
2021/05/28 08:25:26;;;;;;;43.50;35.73;;;18.60;99.90;;;;;;4993465;28;20539;-75
2021/05/28 08:27:53;;;;;;;43.23;34.30;;;19.30;99.90;;;;;;4999058;28;20465;-74
2021/05/28 08:30:20;;;;;;;41.87;35.53;;;17.40;99.90;;;;;;4983089;28;20493;-73
2021/05/28 08:32:49;;;;;;;41.90;33.97;;;17.40;99.90;;;;;;4977539;28;21190;-73
2021/05/28 08:35:16;;;;;;;36.07;32.27;;;16.70;99.90;;;;;;4974102;28;21491;-74
2021/05/28 08:37:42;;;;;;;37.10;33.03;;;17.40;99.90;;;;;;4974954;28;20477;-73
2021/05/28 08:40:10;;;;;;;36.10;32.47;;;17.00;99.90;;;;;;4978205;28;20458;-74
2021/05/28 08:42:37;;;;;;;44.47;35.20;;;17.10;99.90;;;;;;4978898;28;20475;-74
2021/05/28 08:45:05;;;;;;;36.00;31.87;;;17.90;99.90;;;;;;4981174;28;20569;-74
2021/05/28 08:47:31;;;;;;;41.37;31.37;;;18.60;99.90;;;;;;4976423;28;20468;-75
2021/05/28 08:50:00;;;;;;;36.07;31.70;;;19.30;99.90;;;;;;4979042;28;20462;-74
2021/05/28 08:52:27;;;;;;;37.53;32.67;;;20.10;99.90;;;;;;4975306;28;21261;-75
2021/05/28 08:54:53;;;;;;;29.50;26.13;;;20.80;99.90;;;;;;4979796;28;20491;-75
2021/05/28 08:57:22;;;;;;;29.27;26.13;;;20.70;99.90;;;;;;4978920;28;20525;-75
2021/05/28 08:59:48;;;;;;;32.13;29.00;;;20.70;99.90;;;;;;4975944;28;20542;-75
2021/05/28 09:02:32;;;;;;;33.23;29.53;;;20.10;99.90;;;;;;4978572;28;20466;-75
2021/05/28 09:05:08;;;;;;;28.37;25.63;;;20.60;99.90;;;;;;4974614;28;20487;-75
2021/05/28 09:07:35;;;;;;;26.00;22.60;;;20.30;99.90;;;;;;4975080;28;20863;-74
2021/05/28 09:10:01;;;;;;;27.77;24.97;;;21.50;99.90;;;;;;4977961;28;20843;-75
2021/05/28 09:12:28;;;;;;;25.73;23.33;;;22.10;99.90;;;;;;4970808;28;20496;-76
2021/05/28 09:14:55;;;;;;;29.10;26.17;;;22.00;99.90;;;;;;4980236;28;20480;-75
2021/05/28 09:17:22;;;;;;;30.17;26.53;;;22.30;99.90;;;;;;4975044;28;20467;-75
2021/05/28 09:19:53;;;;;;;29.37;26.57;;;21.70;99.90;;;;;;4972254;28;20466;-75
2021/05/28 09:22:20;;;;;;;29.00;26.00;;;21.80;99.90;;;;;;4978204;28;20544;-75
2021/05/28 09:24:47;;;;;;;31.13;27.90;;;22.40;99.90;;;;;;4977410;28;20521;-75
2021/05/28 09:27:23;;;;;;;35.53;26.80;;;22.50;99.90;;;;;;4979197;28;20459;-76
2021/05/28 09:30:05;;;;;;;25.50;22.60;;;22.80;99.90;;;;;;4989992;28;20497;-75
2021/05/28 09:32:34;;;;;;;25.87;23.27;;;22.90;99.90;;;;;;4997538;28;20899;-75
2021/05/28 09:35:01;;;;;;;22.97;21.23;;;22.70;99.90;;;;;;4994283;28;20823;-75
2021/05/28 09:37:39;;;;;;;22.77;20.40;;;21.40;99.90;;;;;;5001694;28;20545;-76
2021/05/28 09:40:09;;;;;;;22.00;20.00;;;21.50;99.90;;;;;;4998337;28;20479;-75
2021/05/28 09:42:54;;;;;;;18.87;17.60;;;21.70;99.90;;;;;;4997941;28;20470;-75
2021/05/28 09:45:29;;;;;;;16.00;15.07;;;22.20;99.90;;;;;;4997719;28;20501;-76
2021/05/28 09:47:57;;;;;;;17.20;16.10;;;22.90;98.10;;;;;;4994787;28;20469;-75
2021/05/28 09:50:23;;;;;;;18.97;17.63;;;23.00;98.10;;;;;;5001492;28;20473;-75
2021/05/28 09:52:51;;;;;;;18.73;17.40;;;23.10;98.70;;;;;;5008095;28;20497;-75
2021/05/28 09:55:18;;;;;;;19.20;17.50;;;23.50;98.00;;;;;;5000577;28;20509;-74
2021/05/28 09:57:46;;;;;;;19.10;17.60;;;24.20;98.00;;;;;;4998402;28;20992;-74
2021/05/28 10:00:24;;;;;;;19.67;18.33;;;23.50;98.10;;;;;;4999095;28;20466;-75
2021/05/28 10:02:51;;;;;;;19.17;17.80;;;24.00;97.40;;;;;;4999778;28;20611;-75
2021/05/28 10:05:24;;;;;;;18.07;16.77;;;24.20;96.60;;;;;;4991137;28;20485;-74
2021/05/28 10:07:51;;;;;;;16.70;15.63;;;25.00;95.80;;;;;;4996515;28;20987;-75
2021/05/28 10:10:20;;;;;;;15.63;14.83;;;24.80;95.80;;;;;;4996689;28;20463;-75
2021/05/28 10:12:48;;;;;;;18.53;17.07;;;25.10;93.60;;;;;;4995413;28;20761;-74
2021/05/28 10:15:15;;;;;;;17.50;16.40;;;24.90;93.10;;;;;;4994371;28;21202;-74
2021/05/28 10:17:42;;;;;;;19.90;18.10;;;24.90;93.40;;;;;;4998921;28;20541;-74
2021/05/28 10:20:09;;;;;;;19.53;18.13;;;24.20;92.20;;;;;;4997197;28;20463;-74
2021/05/28 10:22:35;;;;;;;18.73;17.33;;;23.90;94.10;;;;;;4999178;28;20471;-75
2021/05/28 10:25:05;;;;;;;19.17;17.80;;;23.60;93.50;;;;;;5001866;28;20563;-75
2021/05/28 10:27:32;;;;;;;20.67;19.07;;;23.90;94.50;;;;;;4994881;28;21020;-74
2021/05/28 10:29:58;;;;;;;21.23;19.50;;;24.50;96.00;;;;;;4991795;28;20549;-75
2021/05/28 10:32:25;;;;;;;21.57;19.70;;;25.70;93.80;;;;;;4999017;28;20990;-76
2021/05/28 10:35:18;;;;;;;21.40;19.87;;;25.00;93.70;;;;;;5001591;28;20453;-75
2021/05/28 10:37:46;;;;;;;20.27;18.60;;;23.90;94.30;;;;;;4972576;28;20462;-75
2021/05/28 10:40:28;;;;;;;21.53;19.83;;;23.80;93.90;;;;;;4993737;28;21028;-76
2021/05/28 10:43:02;;;;;;;21.67;20.00;;;23.20;95.00;;;;;;4999575;28;20462;-75
2021/05/28 10:45:58;;;;;;;22.27;20.50;;;22.40;95.40;;;;;;4999352;28;20479;-75
2021/05/28 10:49:11;;;;;;;21.93;20.33;;;22.30;96.00;;;;;;4992877;28;20461;-76
2021/05/28 10:52:04;;;;;;;21.87;19.93;;;23.00;96.60;;;;;;4958230;28;20462;-75
2021/05/28 10:54:33;;;;;;;23.57;21.50;;;23.80;96.00;;;;;;4989495;28;20510;-76
2021/05/28 10:57:35;;;;;;;23.63;21.43;;;24.10;94.90;;;;;;4994669;28;21034;-75
2021/05/28 11:00:07;;;;;;;22.80;20.87;;;23.80;95.10;;;;;;4993904;28;20523;-74
2021/05/28 11:02:48;;;;;;;24.47;22.10;;;22.30;95.10;;;;;;4997523;28;21031;-74
2021/05/28 11:05:16;;;;;;;26.03;23.73;;;21.80;96.80;;;;;;4996026;28;21090;-74
2021/05/28 11:07:44;;;;;;;22.87;20.97;;;21.70;97.40;;;;;;5000214;28;20465;-74
2021/05/28 11:10:24;;;;;;;24.50;21.90;;;22.70;96.80;;;;;;4998016;28;20465;-73
2021/05/28 11:12:52;;;;;;;25.27;23.17;;;23.20;97.10;;;;;;4994630;28;20973;-73
2021/05/28 11:15:25;;;;;;;23.07;21.27;;;23.30;96.40;;;;;;4996398;28;21081;-73
2021/05/28 11:17:54;;;;;;;22.83;20.97;;;24.20;95.20;;;;;;4991966;28;20458;-73
2021/05/28 11:20:28;;;;;;;26.23;23.23;;;24.70;94.30;;;;;;4994091;28;20458;-73
2021/05/28 11:22:55;;;;;;;25.70;23.33;;;24.00;94.10;;;;;;4996779;28;20477;-73
2021/05/28 11:25:24;;;;;;;24.93;22.90;;;23.90;94.50;;;;;;4994298;28;20525;-72
2021/05/28 11:28:01;;;;;;;25.13;23.03;;;23.10;94.60;;;;;;4999016;28;21187;-73
2021/05/28 11:30:43;;;;;;;23.40;21.20;;;23.70;94.60;;;;;;4995340;28;20485;-72
2021/05/28 11:33:09;;;;;;;24.67;22.47;;;25.10;96.50;;;;;;4991396;28;20466;-73
2021/05/28 11:35:41;;;;;;;23.13;21.07;;;25.10;93.70;;;;;;4990035;28;20991;-72
2021/05/28 11:38:09;;;;;;;23.33;21.23;;;25.30;94.00;;;;;;4993733;28;20537;-72
2021/05/28 11:40:41;;;;;;;24.23;21.77;;;25.10;92.60;;;;;;4994428;28;20894;-72
2021/05/28 11:43:12;;;;;;;23.60;21.43;;;25.50;93.10;;;;;;4993560;28;20779;-72
2021/05/28 11:45:40;;;;;;;22.87;20.97;;;25.40;91.80;;;;;;4998238;28;20484;-72
2021/05/28 11:48:12;;;;;;;23.90;21.87;;;25.10;92.80;;;;;;4998539;28;20474;-72
2021/05/28 11:50:42;;;;;;;22.03;20.03;;;25.00;92.50;;;;;;4997949;28;20536;-72
2021/05/28 11:53:10;;;;;;;23.73;21.67;;;24.00;94.00;;;;;;4994414;28;20501;-72
2021/05/28 11:55:44;;;;;;;22.80;20.80;;;24.20;93.80;;;;;;4998076;28;20489;-72
2021/05/28 11:58:13;;;;;;;22.13;20.43;;;24.30;94.30;;;;;;4995311;28;20837;-72
2021/05/28 12:00:41;;;;;;;22.60;20.70;;;24.50;93.70;;;;;;4989189;28;20546;-72
2021/05/28 12:03:08;;;;;;;22.70;21.00;;;24.80;94.30;;;;;;4992115;28;20838;-72
2021/05/28 12:05:37;;;;;;;25.20;22.13;;;25.30;93.20;;;;;;4997427;28;20508;-72
2021/05/28 12:08:19;;;;;;;23.70;21.70;;;25.50;91.50;;;;;;4994641;28;20745;-72
2021/05/28 12:10:48;;;;;;;22.50;20.60;;;26.20;91.50;;;;;;4995870;28;21012;-72
2021/05/28 12:13:17;;;;;;;23.73;21.37;;;25.70;91.90;;;;;;4996311;28;20976;-72
2021/05/28 12:15:46;;;;;;;24.20;21.97;;;25.50;91.30;;;;;;5004275;28;20537;-72
2021/05/28 12:18:19;;;;;;;24.77;22.47;;;25.50;90.00;;;;;;4996704;28;20508;-72
2021/05/28 12:20:47;;;;;;;22.83;21.03;;;25.90;91.20;;;;;;4997333;28;20460;-72
2021/05/28 12:23:16;;;;;;;23.90;21.60;;;26.70;90.40;;;;;;5004058;28;20531;-72
2021/05/28 12:25:46;;;;;;;22.57;20.57;;;27.70;88.40;;;;;;5000207;28;20998;-72
2021/05/28 12:28:22;;;;;;;23.07;21.07;;;27.60;87.30;;;;;;4998117;28;20866;-72
2021/05/28 12:30:54;;;;;;;25.80;23.20;;;26.90;85.90;;;;;;4995165;28;20548;-72
2021/05/28 12:33:25;;;;;;;23.83;21.77;;;25.60;87.30;;;;;;4992557;28;20484;-72
2021/05/28 12:35:54;;;;;;;24.70;22.40;;;25.70;90.00;;;;;;4999060;28;20469;-72